createdAt,value
2023-06-18T00:01:36.511Z,100890.44
2023-06-18T00:03:38.612Z,100890.59
2023-06-18T00:05:41.008Z,100898.44
2023-06-18T00:07:43.173Z,100897.00
2023-06-18T00:09:45.439Z,100896.19
2023-06-18T00:11:47.821Z,100896.94
2023-06-18T00:13:50.070Z,100898.00
2023-06-18T00:15:52.646Z,100902.31
2023-06-18T00:17:55.108Z,100902.50
2023-06-18T00:19:57.336Z,100909.47
2023-06-18T00:22:00.671Z,100907.22
2023-06-18T00:24:03.385Z,100922.22
2023-06-18T00:26:06.242Z,100947.91
2023-06-18T00:28:08.457Z,100926.25
2023-06-18T00:30:11.255Z,100941.25
2023-06-18T00:32:13.378Z,100927.97
2023-06-18T00:34:16.355Z,100913.19
2023-06-18T00:36:21.067Z,100908.75
2023-06-18T00:38:23.107Z,100917.34
2023-06-18T00:40:25.497Z,100906.66
2023-06-18T00:42:29.996Z,100897.13
2023-06-18T00:44:32.223Z,100889.69
2023-06-18T00:46:36.816Z,100887.69
2023-06-18T00:48:39.126Z,100874.50
2023-06-18T00:50:42.238Z,100868.50
2023-06-18T00:52:49.327Z,100866.84
2023-06-18T00:54:51.997Z,100859.47
2023-06-18T00:56:54.344Z,100865.94
2023-06-18T00:58:58.750Z,100867.63
2023-06-18T01:01:01.145Z,100867.47
2023-06-18T01:03:06.861Z,100872.72
2023-06-18T01:05:10.767Z,100877.78
2023-06-18T01:07:15.773Z,100879.81
2023-06-18T01:09:24.971Z,100867.50
2023-06-18T01:11:30.634Z,100863.91
2023-06-18T01:13:37.887Z,100865.66
2023-06-18T01:15:40.445Z,100857.06
2023-06-18T01:17:47.902Z,100854.25
2023-06-18T01:20:11.569Z,100845.31
2023-06-18T01:22:28.401Z,100839.94
2023-06-18T01:24:33.842Z,100841.72
2023-06-18T01:26:36.971Z,100834.63
2023-06-18T01:28:41.557Z,100822.56
2023-06-18T01:30:43.936Z,100822.50
2023-06-18T01:32:46.356Z,100816.22
2023-06-18T01:34:49.174Z,100817.28
2023-06-18T01:37:06.773Z,100817.34
2023-06-18T01:39:26.371Z,100809.13
2023-06-18T01:41:32.838Z,100804.69
2023-06-18T01:43:43.393Z,100802.16
2023-06-18T01:45:47.185Z,100808.44
2023-06-18T01:47:52.064Z,100796.19
2023-06-18T01:49:56.946Z,100812.84
2023-06-18T01:52:03.917Z,100816.13
2023-06-18T01:54:08.046Z,100822.66
2023-06-18T01:56:10.767Z,100815.72
2023-06-18T01:58:14.969Z,100800.78
2023-06-18T02:00:17.108Z,100795.53
2023-06-18T02:02:19.271Z,100787.78
2023-06-18T02:04:21.590Z,100789.44
2023-06-18T02:06:23.630Z,100807.09
2023-06-18T02:08:27.546Z,100802.53
2023-06-18T02:10:29.500Z,100812.28
2023-06-18T02:12:31.458Z,100814.81
2023-06-18T02:14:33.593Z,100810.47
2023-06-18T02:16:35.768Z,100817.59
2023-06-18T02:18:37.804Z,100798.53
2023-06-18T02:20:41.177Z,100796.72
2023-06-18T02:22:43.406Z,100782.78
2023-06-18T02:24:45.439Z,100783.63
2023-06-18T02:26:47.498Z,100782.81
2023-06-18T02:28:49.595Z,100773.22
2023-06-18T02:30:51.550Z,100785.56
2023-06-18T02:32:54.288Z,100790.00
2023-06-18T02:34:56.772Z,100780.47
2023-06-18T02:36:58.710Z,100787.53
2023-06-18T02:39:00.760Z,100791.44
2023-06-18T02:41:02.861Z,100790.47
2023-06-18T02:43:07.231Z,100787.09
2023-06-18T02:45:10.001Z,100793.38
2023-06-18T02:47:12.045Z,100794.16
2023-06-18T02:49:14.278Z,100797.50
2023-06-18T02:51:16.493Z,100801.94
2023-06-18T02:53:18.614Z,100802.78
2023-06-18T02:55:21.473Z,100794.84
2023-06-18T02:57:23.763Z,100793.84
2023-06-18T02:59:26.185Z,100800.72
2023-06-18T03:01:29.698Z,100791.97
2023-06-18T03:03:33.205Z,100795.41
2023-06-18T03:05:35.277Z,100799.81
2023-06-18T03:07:38.777Z,100800.69
2023-06-18T03:09:40.942Z,100785.31
2023-06-18T03:11:43.090Z,100759.16
2023-06-18T03:13:45.380Z,100737.19
2023-06-18T03:15:47.590Z,100714.72
2023-06-18T03:17:49.665Z,100708.75
2023-06-18T03:19:51.890Z,100747.19
2023-06-18T03:21:54.448Z,100772.25
2023-06-18T03:23:56.687Z,100781.66
2023-06-18T03:25:58.927Z,100791.50
2023-06-18T03:28:00.998Z,100794.00
2023-06-18T03:30:05.675Z,100780.03
2023-06-18T03:32:08.493Z,100762.03
2023-06-18T03:34:10.736Z,100763.88
2023-06-18T03:36:16.989Z,100764.78
2023-06-18T03:38:19.266Z,100755.22
2023-06-18T03:40:22.343Z,100754.34
2023-06-18T03:42:25.527Z,100763.97
2023-06-18T03:44:27.550Z,100771.22
2023-06-18T03:46:29.808Z,100775.47
2023-06-18T03:48:32.418Z,100780.16
2023-06-18T03:50:34.521Z,100775.34
2023-06-18T03:52:36.548Z,100774.28
2023-06-18T03:54:39.831Z,100776.84
2023-06-18T03:56:42.524Z,100769.91
2023-06-18T03:58:45.323Z,100762.88
2023-06-18T04:00:47.809Z,100768.72
2023-06-18T04:02:49.956Z,100761.88
2023-06-18T04:04:52.209Z,100752.31
2023-06-18T04:06:54.438Z,100762.81
2023-06-18T04:08:56.612Z,100760.00
2023-06-18T04:10:59.576Z,100758.16
2023-06-18T04:13:01.979Z,100751.22
2023-06-18T04:15:04.792Z,100753.00
2023-06-18T04:17:07.226Z,100745.97
2023-06-18T04:19:09.327Z,100748.59
2023-06-18T04:21:11.389Z,100739.81
2023-06-18T04:23:14.432Z,100739.72
2023-06-18T04:25:16.898Z,100733.69
2023-06-18T04:27:18.990Z,100733.72
2023-06-18T04:29:21.112Z,100729.22
2023-06-18T04:31:23.253Z,100727.44
2023-06-18T04:33:26.010Z,100726.66
2023-06-18T04:35:27.952Z,100726.09
2023-06-18T04:37:31.339Z,100735.53
2023-06-18T04:39:33.319Z,100737.09
2023-06-18T04:41:35.309Z,100737.03
2023-06-18T04:43:37.301Z,100741.34
2023-06-18T04:45:39.293Z,100741.34
2023-06-18T04:47:42.009Z,100743.09
2023-06-18T04:49:45.144Z,100742.13
2023-06-18T04:51:47.145Z,100742.84
2023-06-18T04:53:49.058Z,100734.94
2023-06-18T04:55:51.040Z,100738.31
2023-06-18T04:57:53.152Z,100741.13
2023-06-18T04:59:55.859Z,100735.63
2023-06-18T05:01:57.766Z,100736.53
2023-06-18T05:03:59.730Z,100750.38
2023-06-18T05:06:01.832Z,100745.22
2023-06-18T05:08:03.940Z,100739.72
2023-06-18T05:10:06.986Z,100743.25
2023-06-18T05:12:09.940Z,100757.19
2023-06-18T05:14:12.038Z,100761.56
2023-06-18T05:16:14.301Z,100759.22
2023-06-18T05:18:16.474Z,100764.44
2023-06-18T05:20:18.822Z,100763.56
2023-06-18T05:22:21.042Z,100750.38
2023-06-18T05:24:23.106Z,100760.78
2023-06-18T05:26:25.903Z,100752.13
2023-06-18T05:28:27.973Z,100758.31
2023-06-18T05:30:30.134Z,100757.56
2023-06-18T05:32:32.239Z,100754.91
2023-06-18T05:34:34.609Z,100767.94
2023-06-18T05:36:36.693Z,100764.81
2023-06-18T05:38:38.883Z,100767.13
2023-06-18T05:40:41.006Z,100773.25
2023-06-18T05:42:43.597Z,100768.84
2023-06-18T05:44:46.406Z,100770.59
2023-06-18T05:46:48.600Z,100773.13
2023-06-18T05:48:50.777Z,100776.13
2023-06-18T05:50:53.176Z,100775.81
2023-06-18T05:52:55.406Z,100780.19
2023-06-18T05:54:57.685Z,100779.47
2023-06-18T05:57:01.807Z,100774.16
2023-06-18T05:59:03.875Z,100768.84
2023-06-18T06:01:05.992Z,100769.06
2023-06-18T06:03:08.187Z,100758.44
2023-06-18T06:05:10.559Z,100755.88
2023-06-18T06:07:12.606Z,100755.94
2023-06-18T06:09:14.815Z,100766.28
2023-06-18T06:11:17.157Z,100766.50
2023-06-18T06:13:19.273Z,100763.91
2023-06-18T06:15:21.415Z,100766.47
2023-06-18T06:17:23.493Z,100771.56
2023-06-18T06:19:26.819Z,100767.72
2023-06-18T06:21:29.077Z,100777.28
2023-06-18T06:23:33.147Z,100768.66
2023-06-18T06:25:35.444Z,100772.13
2023-06-18T06:27:39.396Z,100774.66
2023-06-18T06:29:41.475Z,100780.03
2023-06-18T06:31:43.593Z,100784.22
2023-06-18T06:33:46.157Z,100778.09
2023-06-18T06:35:48.278Z,100781.44
2023-06-18T06:37:50.422Z,100769.16
2023-06-18T06:39:52.568Z,100776.00
2023-06-18T06:41:55.021Z,100775.66
2023-06-18T06:43:57.121Z,100775.47
2023-06-18T06:45:59.442Z,100768.47
2023-06-18T06:48:01.569Z,100769.34
2023-06-18T06:50:03.947Z,100764.72
2023-06-18T06:52:06.573Z,100763.66
2023-06-18T06:54:10.608Z,100766.19
2023-06-18T06:56:13.650Z,100760.72
2023-06-18T06:58:16.307Z,100752.88
2023-06-18T07:00:18.788Z,100753.63
2023-06-18T07:02:21.086Z,100759.47
2023-06-18T07:04:23.244Z,100763.63
2023-06-18T07:06:25.423Z,100747.00
2023-06-18T07:08:27.636Z,100753.91
2023-06-18T07:10:30.313Z,100747.84
2023-06-18T07:12:33.093Z,100751.28
2023-06-18T07:14:35.403Z,100761.38
2023-06-18T07:16:37.617Z,100755.44
2023-06-18T07:18:39.856Z,100762.38
2023-06-18T07:20:42.060Z,100763.75
2023-06-18T07:22:44.356Z,100761.31
2023-06-18T07:24:46.525Z,100760.16
2023-06-18T07:26:49.025Z,100761.88
2023-06-18T07:28:51.219Z,100762.00
2023-06-18T07:30:53.497Z,100760.56
2023-06-18T07:32:55.811Z,100760.94
2023-06-18T07:34:57.954Z,100757.56
2023-06-18T07:37:00.244Z,100757.75
2023-06-18T07:39:02.808Z,100750.66
2023-06-18T07:41:04.943Z,100752.97
2023-06-18T07:43:07.276Z,100745.94
2023-06-18T07:45:09.866Z,100753.66
2023-06-18T07:47:11.903Z,100738.22
2023-06-18T07:49:14.297Z,100736.50
2023-06-18T07:51:16.568Z,100746.25
2023-06-18T07:53:18.726Z,100744.19
2023-06-18T07:55:21.199Z,100743.19
2023-06-18T07:57:23.418Z,100737.22
2023-06-18T07:59:27.085Z,100736.28
2023-06-18T08:01:29.413Z,100738.13
2023-06-18T08:03:31.616Z,100738.47
2023-06-18T08:05:34.127Z,100734.88
2023-06-18T08:07:36.906Z,100733.97
2023-06-18T08:09:39.101Z,100747.63
2023-06-18T08:11:41.392Z,100739.66
2023-06-18T08:13:43.576Z,100736.53
2023-06-18T08:15:45.790Z,100732.22
2023-06-18T08:17:48.097Z,100727.31
2023-06-18T08:19:51.089Z,100727.59
2023-06-18T08:21:54.466Z,100722.16
2023-06-18T08:23:57.650Z,100723.72
2023-06-18T08:25:59.746Z,100712.19
2023-06-18T08:28:01.972Z,100706.66
2023-06-18T08:30:06.416Z,100701.91
2023-06-18T08:32:09.318Z,100700.25
2023-06-18T08:34:11.566Z,100688.59
2023-06-18T08:36:13.827Z,100687.94
2023-06-18T08:38:16.033Z,100686.22
2023-06-18T08:40:25.332Z,100682.59
2023-06-18T08:42:28.582Z,100678.38
2023-06-18T08:44:31.852Z,100664.78
2023-06-18T08:46:36.894Z,100667.72
2023-06-18T08:48:46.617Z,100665.84
2023-06-18T08:50:54.872Z,100669.94
2023-06-18T08:53:06.306Z,100658.38
2023-06-18T08:55:10.525Z,100664.31
2023-06-18T08:57:17.778Z,100657.72
2023-06-18T08:59:20.639Z,100659.94
2023-06-18T09:01:24.715Z,100665.91
2023-06-18T09:03:27.095Z,100666.66
2023-06-18T09:05:29.494Z,100670.53
2023-06-18T09:07:31.970Z,100667.66
2023-06-18T09:09:34.226Z,100656.28
2023-06-18T09:11:37.646Z,100671.19
2023-06-18T09:13:43.007Z,100662.63
2023-06-18T09:15:45.323Z,100657.31
2023-06-18T09:17:52.724Z,100646.25
2023-06-18T09:19:56.284Z,100642.50
2023-06-18T09:22:13.308Z,100649.31
2023-06-18T09:24:19.801Z,100645.72
2023-06-18T09:26:22.177Z,100645.09
2023-06-18T09:28:26.014Z,100638.34
2023-06-18T09:30:28.645Z,100638.38
2023-06-18T09:32:30.753Z,100632.94
2023-06-18T09:34:33.086Z,100633.28
2023-06-18T09:36:37.927Z,100625.75
2023-06-18T09:38:42.923Z,100627.97
2023-06-18T09:40:45.014Z,100630.41
2023-06-18T09:42:47.928Z,100627.19
2023-06-18T09:44:50.797Z,100629.47
2023-06-18T09:46:58.113Z,100631.97
2023-06-18T09:49:02.212Z,100639.22
2023-06-18T09:51:06.149Z,100634.03
2023-06-18T09:53:19.344Z,100625.06
2023-06-18T09:55:32.695Z,100629.47
2023-06-18T09:57:50.787Z,100633.09
2023-06-18T10:00:11.586Z,100633.69
2023-06-18T10:02:25.318Z,100632.59
2023-06-18T10:04:27.777Z,100632.81
2023-06-18T10:06:31.717Z,100630.38
2023-06-18T10:08:35.346Z,100627.50
2023-06-18T10:10:41.868Z,100617.34
2023-06-18T10:12:49.483Z,100615.63
2023-06-18T10:14:55.425Z,100614.25
2023-06-18T10:17:13.086Z,100620.09
2023-06-18T10:19:24.590Z,100609.69
2023-06-18T10:21:29.964Z,100607.84
2023-06-18T10:23:34.768Z,100602.25
2023-06-18T10:25:38.135Z,100593.13
2023-06-18T10:27:40.559Z,100584.94
2023-06-18T10:29:43.719Z,100586.56
2023-06-18T10:31:47.082Z,100586.56
2023-06-18T10:33:49.659Z,100589.44
2023-06-18T10:35:52.586Z,100587.31
2023-06-18T10:37:55.132Z,100583.88
2023-06-18T10:39:57.646Z,100586.00
2023-06-18T10:42:13.028Z,100591.81
2023-06-18T10:44:15.264Z,100588.47
2023-06-18T10:46:18.111Z,100586.94
2023-06-18T10:48:21.415Z,100590.94
2023-06-18T10:50:24.990Z,100587.13
2023-06-18T10:52:30.315Z,100586.16
2023-06-18T10:54:32.803Z,100592.47
2023-06-18T10:56:37.907Z,100579.69
2023-06-18T10:58:42.283Z,100590.25
2023-06-18T11:00:45.551Z,100580.63
2023-06-18T11:02:51.655Z,100589.84
2023-06-18T11:04:54.825Z,100579.94
2023-06-18T11:07:16.015Z,100572.53
2023-06-18T11:09:18.143Z,100573.97
2023-06-18T11:11:25.117Z,100580.66
2023-06-18T11:13:35.685Z,100577.63
2023-06-18T11:15:53.538Z,100563.88
2023-06-18T11:17:56.917Z,100569.13
2023-06-18T11:20:00.127Z,100566.13
2023-06-18T11:22:02.295Z,100565.16
2023-06-18T11:24:05.952Z,100570.28
2023-06-18T11:26:08.237Z,100565.28
2023-06-18T11:28:11.491Z,100570.09
2023-06-18T11:30:15.250Z,100563.03
2023-06-18T11:32:18.147Z,100574.13
2023-06-18T11:34:20.251Z,100573.88
2023-06-18T11:36:22.601Z,100556.59
2023-06-18T11:38:26.714Z,100565.72
2023-06-18T11:40:28.821Z,100563.03
2023-06-18T11:42:31.615Z,100558.97
2023-06-18T11:44:33.750Z,100572.50
2023-06-18T11:46:38.272Z,100573.41
2023-06-18T11:48:40.489Z,100557.81
2023-06-18T11:50:42.808Z,100563.06
2023-06-18T11:52:46.501Z,100562.19
2023-06-18T11:54:50.044Z,100557.75
2023-06-18T11:56:55.316Z,100555.66
2023-06-18T11:58:59.165Z,100556.31
2023-06-18T12:01:01.339Z,100560.13
2023-06-18T12:03:03.880Z,100565.78
2023-06-18T12:05:07.068Z,100558.75
2023-06-18T12:07:09.641Z,100560.47
2023-06-18T12:09:12.389Z,100551.41
2023-06-18T12:11:25.359Z,100552.84
2023-06-18T12:13:39.249Z,100563.91
2023-06-18T12:15:51.984Z,100552.84
2023-06-18T12:17:57.139Z,100561.50
2023-06-18T12:20:11.226Z,100553.91
2023-06-18T12:22:14.634Z,100556.13
2023-06-18T12:24:17.063Z,100558.09
2023-06-18T12:26:19.612Z,100549.94
2023-06-18T12:28:25.676Z,100546.91
2023-06-18T12:30:30.272Z,100559.16
2023-06-18T12:32:32.370Z,100547.78
2023-06-18T12:34:35.847Z,100544.94
2023-06-18T12:36:37.956Z,100547.41
2023-06-18T12:38:41.474Z,100545.94
2023-06-18T12:40:51.598Z,100551.56
2023-06-18T12:42:54.420Z,100546.22
2023-06-18T12:44:57.928Z,100551.66
2023-06-18T12:47:00.818Z,100557.63
2023-06-18T12:49:05.257Z,100550.88
2023-06-18T12:51:08.549Z,100548.06
2023-06-18T12:53:18.113Z,100554.22
2023-06-18T12:55:23.043Z,100552.72
2023-06-18T12:57:28.934Z,100549.28
2023-06-18T12:59:31.143Z,100544.72
2023-06-18T13:01:33.496Z,100549.06
2023-06-18T13:03:36.820Z,100528.69
2023-06-18T13:05:39.057Z,100535.59
2023-06-18T13:07:53.934Z,100538.25
2023-06-18T13:09:56.215Z,100538.28
2023-06-18T13:11:58.456Z,100539.31
2023-06-18T13:14:01.885Z,100546.78
2023-06-18T13:16:04.382Z,100537.59
2023-06-18T13:18:07.445Z,100545.91
2023-06-18T13:20:11.097Z,100532.34
2023-06-18T13:22:14.111Z,100527.88
2023-06-18T13:24:16.372Z,100539.03
2023-06-18T13:26:20.096Z,100537.09
2023-06-18T13:28:22.616Z,100527.38
2023-06-18T13:30:25.320Z,100521.41
2023-06-18T13:32:27.748Z,100530.81
2023-06-18T13:34:29.885Z,100522.59
2023-06-18T13:36:32.698Z,100534.38
2023-06-18T13:38:35.304Z,100523.47
2023-06-18T13:40:37.509Z,100515.34
2023-06-18T13:42:39.797Z,100528.50
2023-06-18T13:44:42.925Z,100536.16
2023-06-18T13:46:45.232Z,100537.19
2023-06-18T13:48:47.438Z,100551.63
2023-06-18T13:50:49.602Z,100548.25
2023-06-18T13:52:51.884Z,100552.72
2023-06-18T13:54:53.988Z,100546.34
2023-06-18T13:56:56.595Z,100537.91
2023-06-18T13:58:58.972Z,100551.34
2023-06-18T14:01:01.168Z,100555.41
2023-06-18T14:03:04.390Z,100558.47
2023-06-18T14:05:08.048Z,100554.94
2023-06-18T14:07:11.204Z,100544.25
2023-06-18T14:09:16.866Z,100556.53
2023-06-18T14:11:20.893Z,100559.34
2023-06-18T14:13:24.893Z,100554.22
2023-06-18T14:15:27.988Z,100562.47
2023-06-18T14:17:30.189Z,100562.28
2023-06-18T14:19:32.380Z,100554.28
2023-06-18T14:21:34.537Z,100559.06
2023-06-18T14:23:37.342Z,100558.16
2023-06-18T14:25:40.526Z,100564.44
2023-06-18T14:27:42.955Z,100558.47
2023-06-18T14:29:45.186Z,100560.28
2023-06-18T14:31:47.385Z,100560.31
2023-06-18T14:33:55.940Z,100553.13
2023-06-18T14:36:06.446Z,100544.53
2023-06-18T14:38:08.707Z,100542.69
2023-06-18T14:40:11.825Z,100550.22
2023-06-18T14:42:13.919Z,100535.47
2023-06-18T14:44:16.593Z,100537.06
2023-06-18T14:46:19.936Z,100532.00
2023-06-18T14:48:22.135Z,100536.81
2023-06-18T14:50:24.388Z,100529.84
2023-06-18T14:52:26.574Z,100526.72
2023-06-18T14:54:28.857Z,100519.41
2023-06-18T14:56:32.144Z,100519.34
2023-06-18T14:58:34.472Z,100527.50
2023-06-18T15:00:37.330Z,100517.13
2023-06-18T15:02:39.866Z,100525.34
2023-06-18T15:04:42.649Z,100519.47
2023-06-18T15:06:47.037Z,100521.41
2023-06-18T15:08:49.775Z,100524.91
2023-06-18T15:10:52.226Z,100533.47
2023-06-18T15:12:54.785Z,100529.88
2023-06-18T15:14:57.006Z,100542.94
2023-06-18T15:16:59.203Z,100540.66
2023-06-18T15:19:01.410Z,100539.47
2023-06-18T15:21:03.732Z,100547.63
2023-06-18T15:23:06.947Z,100552.19
2023-06-18T15:25:09.679Z,100558.44
2023-06-18T15:27:13.187Z,100560.34
2023-06-18T15:29:16.925Z,100560.16
2023-06-18T15:31:20.698Z,100570.63
2023-06-18T15:33:24.944Z,100574.75
2023-06-18T15:35:27.417Z,100579.19
2023-06-18T15:37:29.565Z,100574.00
2023-06-18T15:39:31.683Z,100572.16
2023-06-18T15:41:34.266Z,100576.63
2023-06-18T15:43:36.505Z,100580.22
2023-06-18T15:45:38.810Z,100568.88
2023-06-18T15:47:41.233Z,100570.56
2023-06-18T15:49:43.407Z,100575.53
2023-06-18T15:51:45.833Z,100568.41
2023-06-18T15:53:47.986Z,100568.06
2023-06-18T15:55:50.638Z,100579.06
2023-06-18T15:57:52.948Z,100574.94
2023-06-18T15:59:55.118Z,100574.28
2023-06-18T16:01:57.415Z,100569.94
2023-06-18T16:03:59.766Z,100569.38
2023-06-18T16:06:02.004Z,100571.84
2023-06-18T16:08:04.617Z,100572.81
2023-06-18T16:10:07.957Z,100575.97
2023-06-18T16:12:10.484Z,100574.94
2023-06-18T16:14:12.817Z,100565.31
2023-06-18T16:16:14.969Z,100567.72
2023-06-18T16:18:19.295Z,100559.75
2023-06-18T16:20:22.334Z,100564.31
2023-06-18T16:22:24.507Z,100560.16
2023-06-18T16:24:27.172Z,100556.78
2023-06-18T16:26:29.797Z,100555.34
2023-06-18T16:28:32.848Z,100561.34
2023-06-18T16:30:35.057Z,100555.19
2023-06-18T16:32:37.359Z,100546.22
2023-06-18T16:34:39.956Z,100544.88
2023-06-18T16:36:44.964Z,100540.50
2023-06-18T16:38:47.400Z,100536.00
2023-06-18T16:40:49.813Z,100534.50
2023-06-18T16:42:52.845Z,100533.09
2023-06-18T16:44:55.128Z,100530.44
2023-06-18T16:46:58.203Z,100526.25
2023-06-18T16:49:00.403Z,100523.84
2023-06-18T16:51:03.073Z,100518.50
2023-06-18T16:53:05.685Z,100519.34
2023-06-18T16:55:08.823Z,100524.38
2023-06-18T16:57:10.957Z,100511.41
2023-06-18T16:59:13.190Z,100506.72
2023-06-18T17:01:15.567Z,100504.84
2023-06-18T17:03:17.942Z,100497.25
2023-06-18T17:05:20.411Z,100508.38
2023-06-18T17:07:22.755Z,100504.56
2023-06-18T17:09:25.090Z,100510.16
2023-06-18T17:11:28.783Z,100511.63
2023-06-18T17:13:33.432Z,100518.09
2023-06-18T17:15:35.717Z,100528.13
2023-06-18T17:17:38.065Z,100522.91
2023-06-18T17:19:40.300Z,100510.00
2023-06-18T17:21:42.694Z,100519.09
2023-06-18T17:23:44.885Z,100506.63
2023-06-18T17:25:47.124Z,100505.91
2023-06-18T17:27:50.683Z,100519.31
2023-06-18T17:29:53.288Z,100510.81
2023-06-18T17:31:55.509Z,100512.16
2023-06-18T17:33:58.164Z,100516.63
2023-06-18T17:36:03.612Z,100516.38
2023-06-18T17:38:07.918Z,100518.09
2023-06-18T17:40:11.290Z,100513.00
2023-06-18T17:42:13.958Z,100508.53
2023-06-18T17:44:16.927Z,100505.31
2023-06-18T17:46:19.455Z,100506.19
2023-06-18T17:48:21.569Z,100503.78
2023-06-18T17:50:23.860Z,100495.59
2023-06-18T17:52:26.107Z,100497.47
2023-06-18T17:54:28.579Z,100495.53
2023-06-18T17:56:33.535Z,100489.41
2023-06-18T17:58:36.632Z,100479.00
2023-06-18T18:00:38.940Z,100476.88
2023-06-18T18:02:41.523Z,100472.00
2023-06-18T18:04:44.194Z,100472.78
2023-06-18T18:06:46.967Z,100478.69
2023-06-18T18:08:49.989Z,100485.78
2023-06-18T18:10:52.099Z,100478.34
2023-06-18T18:12:54.439Z,100475.75
2023-06-18T18:14:57.622Z,100475.66
2023-06-18T18:17:01.421Z,100479.00
2023-06-18T18:19:03.782Z,100471.06
2023-06-18T18:21:05.980Z,100476.75
2023-06-18T18:23:08.145Z,100474.38
2023-06-18T18:25:12.221Z,100479.84
2023-06-18T18:27:14.578Z,100486.50
2023-06-18T18:29:17.384Z,100488.44
2023-06-18T18:31:19.737Z,100486.88
2023-06-18T18:33:21.919Z,100493.59
2023-06-18T18:35:24.392Z,100494.13
2023-06-18T18:37:28.315Z,100486.88
2023-06-18T18:39:30.538Z,100490.34
2023-06-18T18:41:32.795Z,100496.72
2023-06-18T18:43:35.367Z,100495.00
2023-06-18T18:45:37.593Z,100487.63
2023-06-18T18:47:39.876Z,100500.56
2023-06-18T18:49:42.221Z,100510.56
2023-06-18T18:51:44.436Z,100503.56
2023-06-18T18:53:51.454Z,100503.84
2023-06-18T18:55:55.357Z,100501.09
2023-06-18T18:57:57.541Z,100507.06
2023-06-18T18:59:59.771Z,100504.50
2023-06-18T19:02:02.084Z,100505.50
2023-06-18T19:04:04.449Z,100508.59
2023-06-18T19:06:06.641Z,100512.34
2023-06-18T19:08:08.882Z,100512.03
2023-06-18T19:10:12.306Z,100515.88
2023-06-18T19:12:14.596Z,100507.44
2023-06-18T19:14:16.762Z,100517.88
2023-06-18T19:16:19.162Z,100517.81
2023-06-18T19:18:21.755Z,100507.16
2023-06-18T19:20:24.242Z,100512.53
2023-06-18T19:22:33.239Z,100521.53
2023-06-18T19:24:35.859Z,100520.91
2023-06-18T19:26:38.378Z,100525.25
2023-06-18T19:28:40.560Z,100525.06
2023-06-18T19:30:42.986Z,100531.09
2023-06-18T19:32:45.392Z,100518.41
2023-06-18T19:34:48.605Z,100535.19
2023-06-18T19:36:51.358Z,100532.94
2023-06-18T19:38:53.656Z,100528.47
2023-06-18T19:40:56.003Z,100530.94
2023-06-18T19:42:58.298Z,100538.00
2023-06-18T19:45:00.625Z,100545.88
2023-06-18T19:47:03.132Z,100541.91
2023-06-18T19:49:05.268Z,100540.91
2023-06-18T19:51:07.419Z,100545.41
2023-06-18T19:53:09.543Z,100550.13
2023-06-18T19:55:11.795Z,100547.66
2023-06-18T19:57:13.975Z,100544.34
2023-06-18T19:59:16.317Z,100544.34
2023-06-18T20:01:18.672Z,100546.94
2023-06-18T20:03:22.716Z,100542.25
2023-06-18T20:05:24.990Z,100542.28
2023-06-18T20:07:27.273Z,100539.16
2023-06-18T20:09:34.627Z,100538.63
2023-06-18T20:11:36.944Z,100538.44
2023-06-18T20:13:39.114Z,100538.50
2023-06-18T20:15:45.985Z,100545.56
2023-06-18T20:17:49.623Z,100542.69
2023-06-18T20:19:52.620Z,100547.25
2023-06-18T20:21:54.770Z,100550.44
2023-06-18T20:23:56.997Z,100549.25
2023-06-18T20:25:59.233Z,100551.13
2023-06-18T20:28:01.652Z,100553.59
2023-06-18T20:30:04.196Z,100553.81
2023-06-18T20:32:07.839Z,100552.97
2023-06-18T20:34:10.169Z,100557.41
2023-06-18T20:36:12.329Z,100564.06
2023-06-18T20:38:14.725Z,100564.13
2023-06-18T20:40:17.095Z,100565.81
2023-06-18T20:42:19.558Z,100571.50
2023-06-18T20:44:21.885Z,100567.19
2023-06-18T20:46:24.810Z,100566.84
2023-06-18T20:48:28.212Z,100574.69
2023-06-18T20:50:30.969Z,100578.50
2023-06-18T20:52:33.397Z,100580.41
2023-06-18T20:54:35.504Z,100580.72
2023-06-18T20:56:37.697Z,100580.06
2023-06-18T20:58:40.662Z,100581.66
2023-06-18T21:00:43.128Z,100587.59
2023-06-18T21:02:45.309Z,100587.66
2023-06-18T21:04:47.586Z,100592.72
2023-06-18T21:06:50.026Z,100598.28
2023-06-18T21:08:52.624Z,100598.34
2023-06-18T21:10:54.944Z,100597.78
2023-06-18T21:12:57.209Z,100600.28
2023-06-18T21:14:59.775Z,100603.16
2023-06-18T21:17:03.599Z,100598.47
2023-06-18T21:19:06.023Z,100600.31
2023-06-18T21:21:08.365Z,100594.19
2023-06-18T21:23:10.558Z,100589.72
2023-06-18T21:25:13.497Z,100602.28
2023-06-18T21:27:15.771Z,100604.78
2023-06-18T21:29:18.092Z,100598.56
2023-06-18T21:31:20.424Z,100598.66
2023-06-18T21:33:22.684Z,100607.50
2023-06-18T21:35:25.214Z,100598.16
2023-06-18T21:37:27.553Z,100607.78
2023-06-18T21:39:29.968Z,100610.41
2023-06-18T21:41:33.081Z,100616.63
2023-06-18T21:43:35.180Z,100607.81
2023-06-18T21:45:37.755Z,100612.16
2023-06-18T21:47:41.369Z,100607.22
2023-06-18T21:49:43.799Z,100615.16
2023-06-18T21:51:46.590Z,100614.97
2023-06-18T21:53:50.164Z,100619.25
2023-06-18T21:55:53.490Z,100602.00
2023-06-18T21:57:55.775Z,100607.47
2023-06-18T21:59:58.656Z,100606.72
2023-06-18T22:02:00.848Z,100605.53
2023-06-18T22:04:03.231Z,100618.59
2023-06-18T22:06:07.931Z,100604.94
2023-06-18T22:08:23.800Z,100607.59
2023-06-18T22:10:27.413Z,100611.28
2023-06-18T22:12:29.725Z,100605.91
2023-06-18T22:14:32.096Z,100614.53
2023-06-18T22:16:34.611Z,100613.03
2023-06-18T22:18:37.862Z,100617.19
2023-06-18T22:20:40.040Z,100621.72
2023-06-18T22:22:43.649Z,100612.94
2023-06-18T22:24:47.432Z,100613.81
2023-06-18T22:26:59.536Z,100612.41
2023-06-18T22:29:01.852Z,100613.22
2023-06-18T22:31:04.063Z,100612.19
2023-06-18T22:33:06.343Z,100608.72
2023-06-18T22:35:09.019Z,100613.00
2023-06-18T22:37:12.052Z,100620.94
2023-06-18T22:39:15.277Z,100612.34
2023-06-18T22:41:17.498Z,100604.53
2023-06-18T22:43:19.762Z,100623.78
2023-06-18T22:45:22.946Z,100614.16
2023-06-18T22:47:25.229Z,100612.31
2023-06-18T22:49:27.575Z,100613.00
2023-06-18T22:51:29.809Z,100609.75
2023-06-18T22:53:32.687Z,100616.81
2023-06-18T22:55:35.048Z,100614.25
2023-06-18T22:57:37.306Z,100611.72
2023-06-18T22:59:39.382Z,100614.31
2023-06-18T23:01:41.654Z,100609.78
2023-06-18T23:03:44.180Z,100607.22
2023-06-18T23:05:46.313Z,100616.88
2023-06-18T23:07:48.549Z,100619.25
2023-06-18T23:09:50.673Z,100610.47
2023-06-18T23:11:53.671Z,100614.69
2023-06-18T23:13:55.986Z,100620.13
2023-06-18T23:15:58.139Z,100615.75
2023-06-18T23:18:02.755Z,100614.63
2023-06-18T23:20:05.915Z,100621.06
2023-06-18T23:22:10.153Z,100624.66
2023-06-18T23:24:12.827Z,100616.63
2023-06-18T23:26:15.516Z,100618.59
2023-06-18T23:28:17.796Z,100617.63